createdAt,value
2022-10-31T00:01:28.201Z,16.08
2022-10-31T00:03:56.015Z,15.23
2022-10-31T00:06:24.395Z,12.57
2022-10-31T00:08:54.164Z,14.32
2022-10-31T00:11:22.019Z,10.85
2022-10-31T00:13:51.658Z,9.10
2022-10-31T00:16:21.775Z,11.90
2022-10-31T00:18:49.969Z,13.57
2022-10-31T00:21:17.563Z,13.77
2022-10-31T00:23:46.103Z,12.55
2022-10-31T00:26:13.474Z,15.60
2022-10-31T00:28:41.354Z,11.02
2022-10-31T00:31:11.778Z,18.55
2022-10-31T00:33:40.543Z,14.88
2022-10-31T00:36:11.372Z,25.05
2022-10-31T00:38:39.031Z,17.48
2022-10-31T00:41:06.379Z,12.68
2022-10-31T00:43:34.295Z,17.40
2022-10-31T00:46:01.819Z,20.25
2022-10-31T00:48:31.198Z,17.35
2022-10-31T00:50:58.536Z,16.30
2022-10-31T00:53:26.467Z,16.80
2022-10-31T00:55:54.072Z,15.10
2022-10-31T00:58:21.894Z,13.27
2022-10-31T01:00:51.125Z,11.90
2022-10-31T01:03:19.766Z,18.52
2022-10-31T01:05:57.017Z,19.95
2022-10-31T01:08:25.395Z,16.15
2022-10-31T01:11:05.436Z,16.48
2022-10-31T01:13:33.881Z,12.93
2022-10-31T01:16:02.554Z,12.25
2022-10-31T01:18:30.980Z,15.90
2022-10-31T01:21:01.676Z,13.38
2022-10-31T01:23:29.569Z,12.63
2022-10-31T01:26:04.776Z,15.95
2022-10-31T01:28:32.728Z,11.30
2022-10-31T01:31:05.770Z,13.93
2022-10-31T01:33:33.763Z,12.05
2022-10-31T01:36:03.188Z,13.23
2022-10-31T01:38:31.649Z,19.13
2022-10-31T01:40:58.913Z,15.93
2022-10-31T01:43:43.462Z,24.20
2022-10-31T01:46:11.487Z,29.85
2022-10-31T01:48:43.362Z,17.05
2022-10-31T01:51:15.608Z,17.27
2022-10-31T01:53:45.736Z,15.45
2022-10-31T01:56:14.857Z,11.65
2022-10-31T01:58:44.643Z,14.93
2022-10-31T02:01:17.330Z,15.20
2022-10-31T02:03:47.413Z,18.70
2022-10-31T02:06:27.386Z,12.65
2022-10-31T02:08:58.199Z,61.50
2022-10-31T02:11:26.103Z,20.85
2022-10-31T02:13:54.002Z,16.50
2022-10-31T02:16:21.419Z,18.40
2022-10-31T02:18:50.314Z,18.70
2022-10-31T02:21:29.466Z,30.27
2022-10-31T02:24:23.045Z,14.45
2022-10-31T02:27:00.136Z,14.43
2022-10-31T02:30:01.637Z,16.67
2022-10-31T02:32:39.749Z,16.23
2022-10-31T02:35:14.652Z,15.88
2022-10-31T02:37:49.264Z,13.27
2022-10-31T02:40:22.974Z,11.43
2022-10-31T02:42:56.599Z,12.10
2022-10-31T02:45:29.888Z,15.38
2022-10-31T02:48:02.929Z,11.27
2022-10-31T02:50:34.422Z,16.00
2022-10-31T02:53:03.178Z,11.18
2022-10-31T02:55:56.216Z,19.83
2022-10-31T02:58:27.146Z,12.98
2022-10-31T03:01:26.214Z,13.38
2022-10-31T03:04:15.305Z,12.02
2022-10-31T03:06:50.948Z,63.35
2022-10-31T03:09:25.936Z,55.45
2022-10-31T03:12:02.258Z,44.75
2022-10-31T03:14:38.735Z,19.70
2022-10-31T03:17:10.775Z,66.82
2022-10-31T03:19:41.996Z,22.55
2022-10-31T03:22:17.731Z,13.65
2022-10-31T03:24:47.159Z,14.65
2022-10-31T03:27:18.271Z,14.73
2022-10-31T03:29:46.408Z,14.27
2022-10-31T03:32:18.886Z,14.40
2022-10-31T03:34:50.797Z,14.35
2022-10-31T03:37:20.655Z,15.43
2022-10-31T03:39:50.228Z,10.32
2022-10-31T03:42:23.135Z,10.70
2022-10-31T03:44:56.772Z,11.70
2022-10-31T03:47:24.799Z,10.82
2022-10-31T03:49:54.695Z,17.90
2022-10-31T03:52:28.437Z,16.80
2022-10-31T03:54:59.930Z,10.00
2022-10-31T03:57:32.560Z,8.60
2022-10-31T04:00:04.319Z,13.40
2022-10-31T04:02:35.277Z,75.03
2022-10-31T04:05:05.714Z,120.55
2022-10-31T04:07:38.045Z,106.78
2022-10-31T04:10:11.002Z,26.48
2022-10-31T04:12:40.767Z,9.15
2022-10-31T04:15:10.678Z,11.55
2022-10-31T04:17:42.393Z,13.57
2022-10-31T04:20:12.134Z,12.70
2022-10-31T04:22:39.874Z,11.05
2022-10-31T04:25:08.512Z,13.32
2022-10-31T04:27:36.340Z,13.82
2022-10-31T04:30:04.434Z,11.95
2022-10-31T04:32:32.272Z,12.55
2022-10-31T04:34:59.765Z,12.45
2022-10-31T04:37:28.777Z,73.13
2022-10-31T04:39:56.263Z,17.23
2022-10-31T04:42:24.082Z,11.93
2022-10-31T04:44:51.376Z,32.72
2022-10-31T04:47:19.132Z,9.93
2022-10-31T04:49:46.429Z,14.68
2022-10-31T04:52:14.781Z,17.75
2022-10-31T04:54:43.806Z,11.82
2022-10-31T04:57:11.763Z,30.75
2022-10-31T04:59:39.105Z,43.15
2022-10-31T05:02:06.890Z,24.48
2022-10-31T05:04:34.559Z,34.22
2022-10-31T05:07:02.279Z,39.42
2022-10-31T05:09:29.697Z,29.85
2022-10-31T05:11:58.882Z,19.67
2022-10-31T05:14:26.262Z,14.20
2022-10-31T05:16:53.812Z,15.50
2022-10-31T05:19:21.206Z,18.45
2022-10-31T05:21:48.478Z,18.92
2022-10-31T05:24:16.167Z,12.75
2022-10-31T05:26:43.754Z,15.23
2022-10-31T05:29:12.963Z,12.93
2022-10-31T05:31:40.362Z,12.45
2022-10-31T05:34:08.276Z,12.30
2022-10-31T05:36:35.562Z,11.13
2022-10-31T05:39:03.763Z,12.75
2022-10-31T05:41:31.057Z,12.25
2022-10-31T05:43:58.769Z,15.18
2022-10-31T05:46:27.817Z,14.98
2022-10-31T05:48:57.578Z,15.75
2022-10-31T05:51:30.211Z,10.18
2022-10-31T05:53:57.946Z,10.82
2022-10-31T05:56:25.474Z,11.75
2022-10-31T05:58:53.237Z,11.57
2022-10-31T06:01:20.516Z,9.38
2022-10-31T06:03:52.427Z,13.73
2022-10-31T06:06:20.052Z,10.10
2022-10-31T06:08:48.226Z,8.93
2022-10-31T06:11:15.764Z,10.15
2022-10-31T06:13:43.522Z,11.73
2022-10-31T06:16:11.114Z,9.35
2022-10-31T06:18:38.971Z,9.80
2022-10-31T06:21:07.899Z,9.73
2022-10-31T06:23:35.685Z,8.13
2022-10-31T06:26:03.125Z,9.18
2022-10-31T06:28:30.788Z,8.98
2022-10-31T06:30:57.991Z,11.60
2022-10-31T06:33:26.005Z,10.00
2022-10-31T06:35:53.596Z,11.48
2022-10-31T06:38:22.835Z,10.80
2022-10-31T06:40:50.181Z,12.27
2022-10-31T06:43:17.971Z,12.57
2022-10-31T06:45:45.274Z,11.02
2022-10-31T06:48:18.002Z,15.10
2022-10-31T06:50:45.861Z,13.60
2022-10-31T06:53:14.018Z,13.23
2022-10-31T06:55:43.290Z,14.18
2022-10-31T06:58:12.669Z,17.77
2022-10-31T07:00:40.031Z,15.95
2022-10-31T07:03:11.430Z,15.05
2022-10-31T07:05:39.096Z,14.02
2022-10-31T07:08:09.413Z,13.45
2022-10-31T07:10:40.380Z,14.65
2022-10-31T07:13:13.448Z,9.98
2022-10-31T07:18:11.601Z,15.55
2022-10-31T07:20:38.878Z,16.25
2022-10-31T07:23:07.394Z,13.70
2022-10-31T07:25:34.766Z,13.57
2022-10-31T07:28:02.581Z,15.15
2022-10-31T07:30:31.632Z,16.85
2022-10-31T07:32:59.483Z,12.02
2022-10-31T07:35:29.412Z,14.00
2022-10-31T07:37:58.187Z,11.43
2022-10-31T07:40:25.862Z,12.75
2022-10-31T07:42:54.333Z,11.75
2022-10-31T07:45:22.431Z,10.75
2022-10-31T07:47:53.669Z,15.85
2022-10-31T07:50:22.319Z,8.93
2022-10-31T07:52:58.599Z,12.45
2022-10-31T07:55:26.074Z,10.00
2022-10-31T07:57:57.825Z,9.27
2022-10-31T08:00:25.634Z,8.60
2022-10-31T08:03:02.595Z,9.90
2022-10-31T08:05:31.387Z,48.28
2022-10-31T08:07:59.602Z,40.22
2022-10-31T08:10:28.289Z,21.88
2022-10-31T08:12:57.298Z,43.60
2022-10-31T08:15:24.812Z,49.53
2022-10-31T08:17:52.540Z,40.50
2022-10-31T08:20:21.747Z,42.22
2022-10-31T08:22:57.454Z,15.20
2022-10-31T08:25:26.195Z,10.23
2022-10-31T08:30:28.405Z,8.82
2022-10-31T08:33:03.589Z,10.65
2022-10-31T08:35:32.796Z,9.93
2022-10-31T08:38:01.245Z,9.35
2022-10-31T08:40:30.334Z,11.65
2022-10-31T08:43:02.588Z,8.43
2022-10-31T08:45:30.821Z,11.05
2022-10-31T08:47:59.454Z,12.13
2022-10-31T08:50:27.504Z,11.13
2022-10-31T08:53:05.309Z,6.68
2022-10-31T08:55:34.718Z,7.82
2022-10-31T08:58:03.691Z,7.57
2022-10-31T09:00:31.325Z,7.82
2022-10-31T09:02:59.530Z,10.50
2022-10-31T09:05:27.014Z,6.55
2022-10-31T09:07:59.171Z,9.50
2022-10-31T09:12:58.042Z,7.63
2022-10-31T09:15:25.634Z,9.23
2022-10-31T09:17:53.679Z,8.52
2022-10-31T09:20:21.495Z,9.07
2022-10-31T09:22:59.143Z,8.52
2022-10-31T09:25:27.707Z,6.50
2022-10-31T09:27:58.055Z,6.28
2022-10-31T09:30:26.578Z,8.68
2022-10-31T09:32:57.018Z,8.38
2022-10-31T09:35:25.800Z,6.47
2022-10-31T09:37:59.361Z,6.88
2022-10-31T09:40:32.819Z,13.50
2022-10-31T09:43:08.505Z,7.60
2022-10-31T09:45:40.791Z,8.27
2022-10-31T09:48:23.011Z,9.70
2022-10-31T09:50:53.104Z,6.97
2022-10-31T09:53:28.918Z,8.57
2022-10-31T09:55:56.461Z,13.02
2022-10-31T09:58:27.514Z,11.63
2022-10-31T10:00:58.366Z,8.70
2022-10-31T10:03:34.211Z,9.13
2022-10-31T10:06:10.393Z,8.48
2022-10-31T10:08:39.723Z,10.68
2022-10-31T10:11:23.356Z,12.55
2022-10-31T10:14:12.563Z,11.05
2022-10-31T10:16:53.085Z,8.48
2022-10-31T10:19:31.675Z,9.93
2022-10-31T10:22:06.046Z,10.13
2022-10-31T10:24:49.904Z,12.55
2022-10-31T10:27:28.924Z,9.25
2022-10-31T10:30:03.307Z,8.93
2022-10-31T10:32:38.832Z,8.65
2022-10-31T10:35:17.442Z,11.77
2022-10-31T10:37:47.711Z,9.40
2022-10-31T10:40:19.725Z,8.10
2022-10-31T10:42:56.857Z,7.35
2022-10-31T10:45:24.727Z,12.13
2022-10-31T10:47:58.394Z,10.32
2022-10-31T10:50:32.910Z,10.00
2022-10-31T10:53:07.651Z,9.05
2022-10-31T10:55:44.493Z,8.05
2022-10-31T10:58:12.208Z,7.82
2022-10-31T11:00:42.518Z,11.30
2022-10-31T11:03:10.993Z,6.70
2022-10-31T11:05:42.645Z,9.20
2022-10-31T11:08:10.444Z,9.63
2022-10-31T11:10:39.604Z,8.18
2022-10-31T11:13:22.715Z,7.22
2022-10-31T11:16:01.154Z,9.52
2022-10-31T11:18:32.119Z,12.50
2022-10-31T11:21:01.648Z,13.55
2022-10-31T11:23:29.947Z,11.73
2022-10-31T11:26:00.992Z,11.75
2022-10-31T11:28:30.124Z,7.82
2022-10-31T11:31:00.065Z,8.73
2022-10-31T11:33:32.705Z,8.80
2022-10-31T11:36:02.484Z,6.90
2022-10-31T11:38:36.079Z,15.18
2022-10-31T11:41:12.073Z,7.28
2022-10-31T11:43:41.389Z,8.27
2022-10-31T11:46:13.259Z,10.60
2022-10-31T11:51:08.406Z,12.68
2022-10-31T11:53:36.343Z,10.85
2022-10-31T11:56:11.615Z,10.63
2022-10-31T11:58:38.926Z,9.50
2022-10-31T12:01:06.946Z,11.73
2022-10-31T12:03:51.721Z,8.40
2022-10-31T12:06:24.875Z,10.60
2022-10-31T12:08:52.208Z,15.25
2022-10-31T12:11:35.077Z,8.90
2022-10-31T12:14:17.422Z,11.75
2022-10-31T12:16:52.378Z,12.27
2022-10-31T12:19:30.697Z,8.23
2022-10-31T12:22:09.199Z,12.15
2022-10-31T12:24:54.816Z,9.93
2022-10-31T12:27:36.629Z,11.00
2022-10-31T12:30:15.088Z,12.05
2022-10-31T12:33:01.920Z,9.65
2022-10-31T12:35:41.580Z,9.95
2022-10-31T12:38:27.476Z,11.93
2022-10-31T12:41:09.069Z,7.65
2022-10-31T12:43:47.645Z,9.52
2022-10-31T12:46:26.499Z,10.00
2022-10-31T12:49:12.458Z,12.10
2022-10-31T12:51:49.391Z,10.43
2022-10-31T12:54:42.834Z,12.10
2022-10-31T12:57:22.192Z,10.93
2022-10-31T12:59:58.319Z,14.25
2022-10-31T13:02:30.876Z,12.00
2022-10-31T13:05:03.517Z,9.88
2022-10-31T13:07:37.601Z,15.57
2022-10-31T13:10:16.318Z,12.55
2022-10-31T13:12:45.459Z,11.35
2022-10-31T13:15:18.976Z,12.90
2022-10-31T13:17:49.836Z,11.70
2022-10-31T13:20:24.518Z,14.57
2022-10-31T13:22:55.751Z,9.75
2022-10-31T13:25:26.323Z,11.77
2022-10-31T13:27:58.290Z,12.18
2022-10-31T13:30:30.267Z,9.25
2022-10-31T13:33:04.431Z,10.15
2022-10-31T13:35:40.298Z,9.90
2022-10-31T13:38:17.841Z,10.05
2022-10-31T13:40:52.649Z,10.70
2022-10-31T13:43:28.953Z,10.23
2022-10-31T13:45:58.276Z,12.48
2022-10-31T13:48:37.917Z,10.68
2022-10-31T13:51:08.376Z,14.55
2022-10-31T13:53:45.596Z,11.00
2022-10-31T13:56:24.700Z,13.63
2022-10-31T13:59:17.584Z,11.40
2022-10-31T14:01:52.996Z,11.30
2022-10-31T14:04:25.617Z,13.88
2022-10-31T14:07:07.609Z,9.88
2022-10-31T14:09:38.253Z,15.20
2022-10-31T14:12:09.505Z,10.23
2022-10-31T14:14:46.132Z,11.80
2022-10-31T14:17:24.077Z,10.77
2022-10-31T14:20:23.820Z,10.63
2022-10-31T14:22:51.648Z,13.45
2022-10-31T14:25:30.612Z,11.55
2022-10-31T14:27:59.705Z,13.98
2022-10-31T14:30:29.743Z,14.85
2022-10-31T14:33:02.302Z,11.38
2022-10-31T14:35:52.160Z,11.52
2022-10-31T14:38:32.344Z,8.88
2022-10-31T14:41:25.316Z,11.80
2022-10-31T14:44:16.507Z,15.95
2022-10-31T14:46:53.057Z,16.73
2022-10-31T14:49:38.097Z,14.38
2022-10-31T14:52:08.180Z,10.55
2022-10-31T14:54:40.997Z,14.73
2022-10-31T14:57:17.769Z,15.02
2022-10-31T14:59:49.482Z,12.35
2022-10-31T15:02:21.452Z,10.52
2022-10-31T15:04:53.537Z,11.02
2022-10-31T15:10:04.740Z,11.30
2022-10-31T15:12:35.056Z,10.48
2022-10-31T15:15:14.718Z,12.70
2022-10-31T15:17:45.679Z,11.93
2022-10-31T15:20:20.469Z,11.68
2022-10-31T15:22:48.674Z,11.85
2022-10-31T15:25:19.609Z,9.50
2022-10-31T15:27:48.326Z,13.20
2022-10-31T15:30:20.704Z,11.30
2022-10-31T15:32:57.589Z,17.88
2022-10-31T15:37:57.548Z,16.27
2022-10-31T15:40:26.953Z,21.38
2022-10-31T15:42:57.230Z,10.48
2022-10-31T15:45:26.975Z,13.68
2022-10-31T15:47:57.390Z,10.13
2022-10-31T15:50:32.409Z,15.77
2022-10-31T15:53:01.341Z,14.25
2022-10-31T15:55:33.801Z,11.80
2022-10-31T15:58:04.501Z,10.77
2022-10-31T16:00:34.545Z,10.32
2022-10-31T16:03:06.947Z,13.95
2022-10-31T16:05:40.415Z,144.32
2022-10-31T16:08:24.181Z,66.15
2022-10-31T16:10:52.309Z,45.53
2022-10-31T16:13:24.835Z,34.78
2022-10-31T16:16:21.222Z,21.80
2022-10-31T16:18:44.939Z,19.52
2022-10-31T16:21:14.342Z,18.55
2022-10-31T16:23:49.572Z,31.55
2022-10-31T16:26:19.938Z,28.60
2022-10-31T16:28:52.836Z,20.67
2022-10-31T16:31:28.652Z,21.48
2022-10-31T16:34:05.864Z,27.02
2022-10-31T16:36:36.441Z,25.48
2022-10-31T16:39:04.863Z,22.50
2022-10-31T16:41:35.960Z,18.58
2022-10-31T16:44:05.783Z,16.80
2022-10-31T16:46:33.729Z,19.40
2022-10-31T16:49:01.308Z,18.42
2022-10-31T16:51:29.016Z,21.00
2022-10-31T16:53:57.831Z,17.27
2022-10-31T16:56:38.777Z,18.02
2022-10-31T16:59:15.826Z,21.23
2022-10-31T17:01:50.337Z,17.83
2022-10-31T17:04:17.948Z,13.68
2022-10-31T17:06:45.615Z,10.82
2022-10-31T17:09:14.343Z,12.40
2022-10-31T17:11:49.477Z,13.45
2022-10-31T17:14:17.947Z,12.30
2022-10-31T17:16:46.138Z,14.05
2022-10-31T17:19:13.676Z,15.25
2022-10-31T17:21:41.495Z,32.33
2022-10-31T17:24:12.803Z,19.67
2022-10-31T17:26:42.555Z,28.25
2022-10-31T17:29:10.033Z,13.52
2022-10-31T17:31:37.655Z,17.92
2022-10-31T17:34:06.282Z,16.70
2022-10-31T17:36:34.518Z,15.25
2022-10-31T17:39:02.367Z,12.35
2022-10-31T17:41:30.183Z,13.30
2022-10-31T17:43:59.769Z,11.98
2022-10-31T17:46:27.650Z,9.63
2022-10-31T17:48:55.081Z,10.40
2022-10-31T17:51:22.856Z,11.00
2022-10-31T17:53:50.232Z,11.75
2022-10-31T17:56:17.777Z,11.75
2022-10-31T17:58:45.067Z,11.40
2022-10-31T18:01:16.694Z,10.50
2022-10-31T18:03:44.535Z,10.55
2022-10-31T18:06:12.737Z,13.52
2022-10-31T18:08:40.797Z,14.00
2022-10-31T18:11:09.309Z,17.42
2022-10-31T18:13:37.826Z,15.38
2022-10-31T18:16:08.441Z,15.35
2022-10-31T18:18:37.203Z,15.35
2022-10-31T18:21:05.155Z,17.60
2022-10-31T18:23:32.541Z,25.42
2022-10-31T18:26:00.159Z,32.28
2022-10-31T18:28:27.573Z,32.90
2022-10-31T18:30:58.849Z,143.27
2022-10-31T18:33:26.278Z,36.92
2022-10-31T18:35:56.196Z,37.78
2022-10-31T18:38:23.573Z,133.85
2022-10-31T18:40:53.760Z,95.68
2022-10-31T18:43:21.057Z,71.25
2022-10-31T18:45:51.245Z,53.92
2022-10-31T18:48:24.912Z,43.95
2022-10-31T18:50:55.147Z,42.50
2022-10-31T18:53:23.876Z,49.38
2022-10-31T18:55:51.608Z,46.33
2022-10-31T18:58:19.008Z,33.75
2022-10-31T19:00:46.933Z,29.42
2022-10-31T19:03:14.520Z,23.52
2022-10-31T19:05:42.109Z,28.02
2022-10-31T19:08:10.028Z,18.75
2022-10-31T19:10:40.010Z,23.85
2022-10-31T19:13:07.468Z,20.80
2022-10-31T19:15:35.632Z,21.65
2022-10-31T19:18:04.879Z,28.98
2022-10-31T19:20:32.910Z,48.92
2022-10-31T19:23:00.509Z,55.63
2022-10-31T19:25:28.423Z,25.77
2022-10-31T19:28:00.631Z,20.52
2022-10-31T19:30:28.680Z,22.75
2022-10-31T19:32:56.031Z,22.67
2022-10-31T19:35:23.738Z,24.55
2022-10-31T19:37:51.166Z,26.50
2022-10-31T19:40:19.450Z,27.48
2022-10-31T19:42:47.120Z,43.10
2022-10-31T19:45:16.411Z,41.42
2022-10-31T19:47:44.058Z,90.80
2022-10-31T19:50:11.833Z,78.28
2022-10-31T19:52:39.345Z,31.50
2022-10-31T19:55:07.501Z,165.38
2022-10-31T19:58:00.388Z,72.82
2022-10-31T20:00:24.403Z,35.75
2022-10-31T20:02:51.755Z,27.95
2022-10-31T20:05:19.825Z,56.50
2022-10-31T20:07:47.240Z,60.72
2022-10-31T20:10:15.050Z,129.18
2022-10-31T20:12:42.526Z,79.68
2022-10-31T20:15:10.816Z,42.63
2022-10-31T20:17:39.971Z,25.15
2022-10-31T20:20:09.076Z,29.10
2022-10-31T20:22:37.174Z,24.40
2022-10-31T20:25:06.085Z,24.77
2022-10-31T20:27:36.250Z,20.90
2022-10-31T20:30:04.720Z,27.85
2022-10-31T20:32:32.526Z,21.48
2022-10-31T20:35:02.432Z,26.88
2022-10-31T20:37:30.091Z,22.23
2022-10-31T20:39:58.128Z,22.45
2022-10-31T20:42:25.756Z,19.00
2022-10-31T20:44:53.828Z,18.17
2022-10-31T20:47:23.414Z,20.48
2022-10-31T20:49:53.138Z,20.17
2022-10-31T20:52:22.299Z,18.35
2022-10-31T20:54:50.649Z,19.38
2022-10-31T20:57:17.946Z,18.67
2022-10-31T20:59:46.083Z,18.70
2022-10-31T21:02:13.771Z,15.07
2022-10-31T21:04:41.537Z,15.07
2022-10-31T21:07:08.971Z,16.60
2022-10-31T21:09:38.387Z,13.68
2022-10-31T21:12:06.076Z,18.30
2022-10-31T21:14:34.061Z,14.07
2022-10-31T21:17:01.698Z,15.80
2022-10-31T21:19:29.897Z,14.95
2022-10-31T21:21:57.378Z,15.50
2022-10-31T21:24:25.401Z,19.15
2022-10-31T21:26:54.284Z,27.38
2022-10-31T21:29:22.741Z,28.60
2022-10-31T21:31:50.501Z,26.25
2022-10-31T21:34:18.768Z,28.55
2022-10-31T21:36:46.442Z,27.30
2022-10-31T21:39:14.697Z,22.70
2022-10-31T21:41:42.747Z,18.33
2022-10-31T21:44:12.138Z,19.83
2022-10-31T21:46:39.958Z,17.77
2022-10-31T21:49:10.588Z,20.80
2022-10-31T21:51:38.074Z,20.38
2022-10-31T21:54:06.332Z,20.05
2022-10-31T21:56:33.841Z,19.63
2022-10-31T21:59:01.894Z,18.38
2022-10-31T22:01:31.332Z,16.80
2022-10-31T22:03:59.488Z,23.02
2022-10-31T22:06:28.038Z,18.45
2022-10-31T22:08:55.561Z,22.48
2022-10-31T22:11:23.662Z,23.45
2022-10-31T22:13:51.154Z,24.67
2022-10-31T22:16:21.288Z,24.92
2022-10-31T22:18:52.611Z,26.90
2022-10-31T22:21:22.002Z,22.58
2022-10-31T22:23:51.124Z,24.85
2022-10-31T22:26:19.014Z,23.95
2022-10-31T22:28:48.603Z,21.48
2022-10-31T22:31:17.941Z,31.33
2022-10-31T22:33:50.009Z,25.52
2022-10-31T22:36:19.605Z,30.63
2022-10-31T22:38:47.609Z,28.35
2022-10-31T22:41:17.601Z,30.27
2022-10-31T22:43:45.227Z,32.45
2022-10-31T22:46:15.391Z,30.38
2022-10-31T22:48:44.836Z,29.90
2022-10-31T22:51:15.580Z,33.30
2022-10-31T22:53:46.635Z,30.73
2022-10-31T22:56:17.883Z,34.53
2022-10-31T22:58:45.818Z,32.55
2022-10-31T23:01:15.820Z,29.90
2022-10-31T23:03:44.147Z,34.42
2022-10-31T23:06:16.283Z,34.15
2022-10-31T23:08:44.308Z,36.92
2022-10-31T23:11:20.091Z,39.03
2022-10-31T23:13:48.666Z,40.63
2022-10-31T23:16:16.315Z,56.72
2022-10-31T23:18:50.114Z,46.90
2022-10-31T23:21:20.114Z,44.90
2022-10-31T23:23:47.523Z,45.17
2022-10-31T23:26:15.122Z,48.28
2022-10-31T23:28:49.644Z,45.05
2022-10-31T23:31:17.528Z,41.75
2022-10-31T23:33:44.819Z,40.97
2022-10-31T23:36:12.355Z,41.10
2022-10-31T23:38:41.282Z,37.03
2022-10-31T23:41:09.142Z,51.40
2022-10-31T23:43:36.436Z,54.20
2022-10-31T23:46:04.309Z,58.90
2022-10-31T23:48:32.083Z,62.30
2022-10-31T23:51:00.140Z,80.35
2022-10-31T23:53:27.607Z,106.10
2022-10-31T23:55:56.730Z,191.50
2022-10-31T23:58:24.166Z,246.23
